Time;durP1;ratioP1;P1;durP2;ratioP2;P2;SDS_P1;SDS_P2;PMS_P1;PMS_P2;Temp;Humidity;BMP_temperature;BMP_pressure;BME280_temperature;BME280_humidity;BME280_pressure;Samples;Min_cycle;Max_cycle;Signal;HPM_P1;HPM_P2
2022/10/15 00:01:43;;;;;;;79.63;29.23;;;;;;;10.66;100.00;100620.25;5096590;28;20028;-82
2022/10/15 00:04:08;;;;;;;77.03;28.10;;;;;;;10.64;100.00;100625.06;5096647;28;20034;-82
2022/10/15 00:06:34;;;;;;;75.43;29.77;;;;;;;10.63;100.00;100621.53;5096570;28;20062;-82
2022/10/15 00:09:00;;;;;;;81.23;30.23;;;;;;;10.68;100.00;100626.28;5079584;28;20152;-83
2022/10/15 00:11:29;;;;;;;78.55;30.13;;;;;;;10.67;100.00;100630.03;5114655;28;20028;-83
2022/10/15 00:13:56;;;;;;;75.20;29.70;;;;;;;10.71;100.00;100628.56;5096388;28;20085;-83
2022/10/15 00:16:24;;;;;;;78.93;30.02;;;;;;;10.73;100.00;100633.75;5114321;28;20030;-83
2022/10/15 00:18:50;;;;;;;82.07;30.75;;;;;;;10.73;100.00;100626.44;5096337;28;20046;-83
2022/10/15 00:21:18;;;;;;;83.80;29.70;;;;;;;10.75;100.00;100627.06;5096366;28;20491;-86
2022/10/15 00:23:44;;;;;;;83.70;30.38;;;;;;;10.74;100.00;100627.28;5061981;28;20043;-83
2022/10/15 00:26:19;;;;;;;79.63;31.30;;;;;;;10.70;100.00;100627.72;5079239;28;20096;-83
2022/10/15 00:28:45;;;;;;;79.50;30.20;;;;;;;10.71;100.00;100631.25;5114373;28;20035;-83
2022/10/15 00:31:13;;;;;;;78.18;31.35;;;;;;;10.68;100.00;100639.84;5096362;28;20023;-83
2022/10/15 00:33:39;;;;;;;71.35;28.85;;;;;;;10.65;100.00;100632.16;5095721;28;20540;-83
2022/10/15 00:36:11;;;;;;;76.97;29.60;;;;;;;10.69;100.00;100639.63;5096268;28;20031;-83
2022/10/15 00:38:37;;;;;;;75.60;30.27;;;;;;;10.70;100.00;100630.44;5096097;28;20031;-83
2022/10/15 00:41:05;;;;;;;78.63;30.88;;;;;;;10.74;100.00;100630.81;5114266;28;20034;-83
2022/10/15 00:43:51;;;;;;;69.77;28.97;;;;;;;10.74;100.00;100630.81;5096125;28;20070;-83
2022/10/15 00:46:21;;;;;;;73.75;30.73;;;;;;;10.78;100.00;100640.19;5096018;28;20114;-84
2022/10/15 00:48:51;;;;;;;71.65;29.58;;;;;;;10.80;100.00;100637.25;5095856;28;20019;-83
2022/10/15 00:51:19;;;;;;;75.32;29.20;;;;;;;10.80;100.00;100637.25;5096248;28;20244;-83
2022/10/15 00:53:47;;;;;;;66.43;29.33;;;;;;;10.81;100.00;100636.19;5095799;28;20123;-83
2022/10/15 00:56:16;;;;;;;68.73;29.23;;;;;;;10.82;100.00;100637.84;5095827;28;20072;-83
2022/10/15 00:58:44;;;;;;;68.28;30.38;;;;;;;10.82;100.00;100643.28;5095791;28;20122;-83
2022/10/15 01:01:09;;;;;;;64.30;29.05;;;;;;;10.86;100.00;100636.34;5095702;28;20177;-83
2022/10/15 01:03:35;;;;;;;65.63;28.30;;;;;;;10.83;100.00;100637.63;5095615;28;20463;-83
2022/10/15 01:06:01;;;;;;;60.80;28.42;;;;;;;10.87;100.00;100638.03;5095727;28;20031;-83
2022/10/15 01:08:27;;;;;;;61.90;28.60;;;;;;;10.87;100.00;100636.13;5078797;28;20387;-83
2022/10/15 01:11:20;;;;;;;67.35;29.25;;;;;;;10.87;100.00;100638.84;5095639;28;20028;-83
2022/10/15 01:13:59;;;;;;;57.50;27.40;;;;;;;10.91;100.00;100639.25;5095403;28;20034;-83
2022/10/15 01:16:43;;;;;;;60.25;28.20;;;;;;;10.94;100.00;100630.66;5096443;28;20165;-83
2022/10/15 01:19:41;;;;;;;63.13;29.20;;;;;;;10.97;100.00;100622.06;5095899;28;20133;-83
2022/10/15 01:22:19;;;;;;;58.42;28.52;;;;;;;11.01;100.00;100625.16;5095480;28;20110;-83
2022/10/15 01:25:27;;;;;;;62.85;28.63;;;;;;;11.03;100.00;100620.34;5096121;28;20028;-83
2022/10/15 01:27:58;;;;;;;58.43;28.23;;;;;;;11.05;100.00;100610.88;5095026;28;20102;-82
2022/10/15 01:30:38;;;;;;;58.53;27.00;;;;;;;11.09;100.00;100614.00;5095235;28;20062;-83
2022/10/15 01:33:24;;;;;;;54.20;28.63;;;;;;;11.11;100.00;100606.44;5095834;28;20038;-83
2022/10/15 01:35:56;;;;;;;58.25;28.50;;;;;;;11.13;100.00;100598.94;5117777;28;20036;-82
2022/10/15 01:38:33;;;;;;;56.85;26.65;;;;;;;11.15;100.00;100599.53;5099295;28;20069;-83
2022/10/15 01:41:15;;;;;;;57.57;26.67;;;;;;;11.16;100.00;100593.03;5099524;28;20031;-83
2022/10/15 01:43:58;;;;;;;58.38;29.92;;;;;;;11.19;100.00;100603.47;5117571;28;20036;-83
2022/10/15 01:46:33;;;;;;;53.20;28.88;;;;;;;11.21;100.00;100597.78;5098826;28;20110;-83
2022/10/15 01:49:02;;;;;;;57.28;28.92;;;;;;;11.22;100.00;100599.47;5099380;28;20046;-83
2022/10/15 01:51:30;;;;;;;53.35;27.98;;;;;;;11.26;100.00;100599.84;5082462;28;20039;-84
2022/10/15 01:53:57;;;;;;;54.73;28.37;;;;;;;11.26;100.00;100594.41;5099332;28;20035;-83
2022/10/15 01:56:24;;;;;;;55.83;29.05;;;;;;;11.28;100.00;100586.84;5098926;28;20020;-83
2022/10/15 01:58:54;;;;;;;57.35;28.73;;;;;;;11.30;100.00;100591.00;5098640;28;20432;-82
2022/10/15 02:01:20;;;;;;;52.08;27.98;;;;;;;11.30;100.00;100592.91;5098860;28;20051;-83
2022/10/15 02:03:48;;;;;;;52.85;28.38;;;;;;;11.32;100.00;100586.16;5116869;28;20031;-83
2022/10/15 02:06:36;;;;;;;56.97;27.40;;;;;;;11.35;100.00;100584.88;5098743;28;20080;-83
2022/10/15 02:09:20;;;;;;;52.72;27.42;;;;;;;11.36;100.00;100586.56;5099098;28;20375;-83
2022/10/15 02:12:09;;;;;;;57.35;27.58;;;;;;;11.38;100.00;100589.84;5098745;28;20031;-83
2022/10/15 02:14:51;;;;;;;50.20;25.33;;;;;;;11.35;100.00;100566.72;5099552;28;20115;-83
2022/10/15 02:17:23;;;;;;;52.20;26.67;;;;;;;11.39;100.00;100576.06;5098931;28;20055;-83
2022/10/15 02:19:56;;;;;;;46.90;26.23;;;;;;;11.37;100.00;100575.47;5098911;28;20031;-83
2022/10/15 02:22:27;;;;;;;51.25;27.30;;;;;;;11.37;100.00;100563.78;5098460;28;20058;-83
2022/10/15 02:25:09;;;;;;;46.72;26.58;;;;;;;11.36;100.00;100570.25;5117184;28;20016;-83
2022/10/15 02:27:38;;;;;;;51.92;27.38;;;;;;;11.37;100.00;100563.78;5098440;28;20070;-83
2022/10/15 02:30:08;;;;;;;54.88;26.65;;;;;;;11.39;100.00;100558.94;5116616;28;20089;-82
2022/10/15 02:32:39;;;;;;;51.47;25.90;;;;;;;11.39;100.00;100554.31;5098200;28;20081;-83
2022/10/15 02:35:07;;;;;;;53.97;28.33;;;;;;;11.40;100.00;100553.28;5098852;28;20042;-83
2022/10/15 02:37:34;;;;;;;52.70;27.08;;;;;;;11.45;100.00;100557.19;5098177;28;20092;-83
2022/10/15 02:40:00;;;;;;;51.85;27.50;;;;;;;11.43;100.00;100549.28;5098316;28;20080;-83
2022/10/15 02:42:26;;;;;;;54.83;27.03;;;;;;;11.44;100.00;100547.38;5081320;28;20031;-82
2022/10/15 02:44:51;;;;;;;56.53;26.67;;;;;;;11.47;100.00;100544.19;5097696;28;20036;-82
2022/10/15 02:47:17;;;;;;;54.28;27.38;;;;;;;11.47;100.00;100536.06;5063987;28;20036;-83
2022/10/15 02:49:42;;;;;;;51.70;26.53;;;;;;;11.49;100.00;100531.22;5080913;28;20391;-83
2022/10/15 02:52:08;;;;;;;59.57;27.70;;;;;;;11.51;100.00;100534.53;5097891;28;20490;-83
2022/10/15 02:54:36;;;;;;;54.13;26.40;;;;;;;11.52;100.00;100530.78;5097580;28;20023;-83
2022/10/15 02:57:04;;;;;;;57.33;27.27;;;;;;;11.52;100.00;100528.06;5116145;28;20269;-83
2022/10/15 02:59:30;;;;;;;58.08;27.77;;;;;;;11.52;100.00;100528.06;5115797;28;20031;-83
2022/10/15 03:01:56;;;;;;;58.10;27.60;;;;;;;11.52;100.00;100515.28;5097773;28;20383;-83
2022/10/15 03:04:21;;;;;;;55.85;26.77;;;;;;;11.54;100.00;100520.50;5097501;28;20040;-83
2022/10/15 03:06:46;;;;;;;53.53;26.93;;;;;;;11.53;100.00;100522.41;5097718;28;20019;-82
2022/10/15 03:09:12;;;;;;;55.27;27.37;;;;;;;11.54;100.00;100512.34;5081097;28;20035;-83
2022/10/15 03:11:38;;;;;;;53.65;26.88;;;;;;;11.53;100.00;100516.09;5081024;28;20108;-83
2022/10/15 03:14:04;;;;;;;54.10;27.42;;;;;;;11.50;100.00;100511.13;5097139;28;20028;-83
2022/10/15 03:16:29;;;;;;;54.97;27.43;;;;;;;11.49;100.00;100520.38;5097731;28;20471;-83
2022/10/15 03:18:54;;;;;;;58.67;27.27;;;;;;;11.49;100.00;100518.47;5080787;28;20399;-83
2022/10/15 03:21:20;;;;;;;52.30;26.07;;;;;;;11.50;100.00;100522.00;5097116;28;20042;-83
2022/10/15 03:23:48;;;;;;;55.50;26.10;;;;;;;11.53;100.00;100519.69;5097286;28;20035;-82
2022/10/15 03:26:14;;;;;;;56.27;26.73;;;;;;;11.53;100.00;100514.25;5096981;28;20301;-83
2022/10/15 03:28:39;;;;;;;59.58;26.27;;;;;;;11.57;100.00;100517.31;5097870;28;20448;-83
2022/10/15 03:31:05;;;;;;;54.73;26.43;;;;;;;11.57;100.00;100520.88;5116013;28;20063;-83
2022/10/15 03:33:30;;;;;;;53.27;26.00;;;;;;;11.59;100.00;100520.66;5080216;28;20527;-83
2022/10/15 03:35:56;;;;;;;58.00;25.40;;;;;;;11.59;100.00;100524.19;5097114;28;20495;-82
2022/10/15 03:38:22;;;;;;;49.45;25.70;;;;;;;11.63;100.00;100521.00;5096965;28;20483;-83
2022/10/15 03:40:47;;;;;;;55.80;25.80;;;;;;;11.63;100.00;100516.38;5115548;28;20353;-83
2022/10/15 03:43:12;;;;;;;57.30;25.97;;;;;;;11.64;100.00;100519.97;5097231;28;20063;-83
2022/10/15 03:45:38;;;;;;;61.87;26.53;;;;;;;11.67;100.00;100516.78;5063344;28;20790;-83
2022/10/15 03:48:04;;;;;;;58.93;24.97;;;;;;;11.66;100.00;100509.66;5096998;28;20447;-83
2022/10/15 03:50:29;;;;;;;62.28;25.58;;;;;;;11.63;100.00;100502.81;5080429;28;20028;-83
2022/10/15 03:52:54;;;;;;;64.20;25.17;;;;;;;11.63;100.00;100502.81;5079903;28;20035;-83
2022/10/15 03:55:20;;;;;;;56.93;24.03;;;;;;;11.64;100.00;100507.19;5114657;28;20376;-83
2022/10/15 03:57:45;;;;;;;58.37;25.23;;;;;;;11.63;100.00;100507.41;5063159;28;20027;-83
2022/10/15 04:00:12;;;;;;;57.28;25.23;;;;;;;11.67;100.00;100506.72;5079456;28;20033;-83
2022/10/15 04:02:38;;;;;;;57.67;24.83;;;;;;;11.64;100.00;100509.91;5079829;28;20028;-83
2022/10/15 04:05:04;;;;;;;58.97;24.50;;;;;;;11.63;100.00;100508.22;5096424;28;20028;-83
2022/10/15 04:07:29;;;;;;;58.27;25.17;;;;;;;11.59;100.00;100505.16;5079264;28;20376;-83
2022/10/15 04:09:54;;;;;;;61.25;26.10;;;;;;;11.61;100.00;100509.56;5096503;28;20030;-83
2022/10/15 04:12:20;;;;;;;63.73;24.90;;;;;;;11.65;100.00;100517.00;5096502;28;20528;-83
2022/10/15 04:14:45;;;;;;;60.40;25.63;;;;;;;11.63;100.00;100516.38;5114686;28;20540;-82
2022/10/15 04:17:11;;;;;;;68.40;25.90;;;;;;;11.67;100.00;100511.34;5079503;28;20505;-82
2022/10/15 04:19:36;;;;;;;64.37;26.87;;;;;;;11.70;100.00;100508.97;5114580;28;20079;-82
2022/10/15 04:22:02;;;;;;;65.90;27.67;;;;;;;11.74;100.00;100512.91;5095886;28;20768;-83
2022/10/15 04:24:27;;;;;;;72.17;27.50;;;;;;;11.76;100.00;100518.09;5080109;28;20114;-82
2022/10/15 04:26:53;;;;;;;72.90;28.13;;;;;;;11.82;100.00;100524.50;5079146;28;20381;-82
2022/10/15 04:29:18;;;;;;;68.17;25.93;;;;;;;11.83;100.00;100524.28;5079647;28;20047;-82
2022/10/15 04:31:44;;;;;;;71.10;28.40;;;;;;;11.85;100.00;100524.84;5079008;28;20047;-83
2022/10/15 04:34:10;;;;;;;67.77;28.03;;;;;;;11.90;100.00;100521.47;5096099;28;20361;-83
2022/10/15 04:36:36;;;;;;;69.50;27.83;;;;;;;11.92;100.00;100505.75;5095716;28;20085;-83
2022/10/15 04:39:03;;;;;;;69.45;27.23;;;;;;;11.94;100.00;100509.06;5096350;28;20031;-83
2022/10/15 04:41:29;;;;;;;66.82;26.65;;;;;;;11.96;100.00;100500.69;5096325;28;20487;-83
2022/10/15 04:43:55;;;;;;;68.13;27.47;;;;;;;11.98;100.00;100504.00;5096764;28;20126;-82
2022/10/15 04:46:21;;;;;;;68.80;27.10;;;;;;;12.00;100.00;100508.16;5095530;28;20035;-83
2022/10/15 04:48:47;;;;;;;63.13;27.75;;;;;;;11.99;100.00;100505.66;5079099;28;20106;-83
2022/10/15 04:51:16;;;;;;;62.63;26.27;;;;;;;12.01;100.00;100514.44;5096110;28;20074;-83
2022/10/15 04:53:41;;;;;;;64.10;25.93;;;;;;;12.02;100.00;100508.75;5096627;28;20032;-83
2022/10/15 04:56:12;;;;;;;66.57;27.77;;;;;;;12.01;100.00;100504.38;5096088;28;20353;-83
2022/10/15 04:58:38;;;;;;;62.97;26.25;;;;;;;12.05;100.00;100502.03;5114704;28;20123;-83
2022/10/15 05:01:06;;;;;;;65.40;26.87;;;;;;;12.08;100.00;100504.28;5114309;28;20523;-83
2022/10/15 05:03:33;;;;;;;66.65;27.50;;;;;;;12.09;100.00;100503.19;5096064;28;20032;-83
2022/10/15 05:06:07;;;;;;;61.03;26.20;;;;;;;12.07;100.00;100503.44;5095669;28;20024;-83
2022/10/15 05:08:35;;;;;;;52.47;24.20;;;;;;;12.08;100.00;100505.09;5095956;28;20073;-83
2022/10/15 05:11:07;;;;;;;54.23;23.97;;;;;;;12.05;100.00;100505.56;5118165;28;20038;-83
2022/10/15 05:13:33;;;;;;;52.88;23.15;;;;;;;12.07;100.00;100503.44;5083242;28;20130;-83
2022/10/15 05:16:14;;;;;;;45.38;21.23;;;;;;;12.05;100.00;100512.91;5099504;28;20069;-83
2022/10/15 05:18:40;;;;;;;47.53;22.88;;;;;;;12.01;100.00;100507.09;5100524;28;20023;-83
2022/10/15 05:21:07;;;;;;;49.47;22.95;;;;;;;11.98;100.00;100513.00;5099946;28;20085;-83
2022/10/15 05:23:32;;;;;;;50.10;23.57;;;;;;;11.97;100.00;100508.59;5100391;28;20522;-83
2022/10/15 05:25:59;;;;;;;46.85;21.48;;;;;;;11.96;100.00;100517.84;5099270;28;20130;-83
2022/10/15 05:28:25;;;;;;;47.17;22.33;;;;;;;11.97;100.00;100513.22;5100432;28;20122;-83
2022/10/15 05:30:50;;;;;;;51.53;22.90;;;;;;;11.96;100.00;100508.84;5099771;28;20062;-83
2022/10/15 05:33:15;;;;;;;45.30;21.43;;;;;;;11.95;100.00;100513.47;5082575;28;20143;-83
2022/10/15 05:35:41;;;;;;;52.20;22.57;;;;;;;11.96;100.00;100520.56;5082450;28;20037;-83
2022/10/15 05:38:06;;;;;;;46.57;23.53;;;;;;;11.95;100.00;100515.34;5082731;28;20053;-83
2022/10/15 05:40:32;;;;;;;48.45;22.52;;;;;;;11.97;100.00;100513.22;5082916;28;20486;-82
2022/10/15 05:42:57;;;;;;;42.97;21.40;;;;;;;12.00;100.00;100510.88;5082293;28;20088;-82
2022/10/15 05:45:22;;;;;;;51.00;23.17;;;;;;;12.02;100.00;100506.03;5117480;28;20027;-82
2022/10/15 05:47:52;;;;;;;42.43;21.80;;;;;;;12.02;100.00;100505.22;5117173;28;20035;-82
2022/10/15 05:50:17;;;;;;;46.58;21.75;;;;;;;12.05;100.00;100502.84;5099082;28;20031;-82
2022/10/15 05:52:43;;;;;;;44.87;22.47;;;;;;;12.06;100.00;100503.66;5066115;28;20027;-82
2022/10/15 05:55:08;;;;;;;46.77;21.67;;;;;;;12.08;100.00;100501.56;5099452;28;20040;-81
2022/10/15 05:57:34;;;;;;;43.58;21.25;;;;;;;12.07;100.00;100500.72;5082423;28;20541;-83
2022/10/15 05:59:59;;;;;;;50.90;22.30;;;;;;;12.09;100.00;100498.59;5082334;28;20071;-83
2022/10/15 06:02:24;;;;;;;47.63;21.73;;;;;;;12.10;100.00;100507.56;5081983;28;20483;-83
2022/10/15 06:04:52;;;;;;;46.83;22.13;;;;;;;12.06;100.00;100506.38;5098805;28;20482;-83
2022/10/15 06:07:17;;;;;;;50.13;22.65;;;;;;;12.02;100.00;100508.75;5099213;28;20024;-83
2022/10/15 06:09:43;;;;;;;49.73;22.63;;;;;;;11.99;100.00;100505.66;5098740;28;20034;-83
2022/10/15 06:12:08;;;;;;;49.28;23.42;;;;;;;11.96;100.00;100506.13;5081734;28;20028;-83
2022/10/15 06:14:33;;;;;;;47.57;22.50;;;;;;;11.95;100.00;100505.31;5098655;28;20032;-83
2022/10/15 06:16:59;;;;;;;47.83;23.53;;;;;;;11.93;100.00;100491.13;5098588;28;20069;-83
2022/10/15 06:19:24;;;;;;;53.77;22.40;;;;;;;11.96;100.00;100509.69;5082367;28;20083;-83
2022/10/15 06:21:50;;;;;;;48.87;23.40;;;;;;;11.97;100.00;100505.88;5081169;28;20027;-83
2022/10/15 06:24:15;;;;;;;50.90;23.48;;;;;;;11.99;100.00;100503.78;5081153;28;20397;-83
2022/10/15 06:26:40;;;;;;;45.73;21.90;;;;;;;12.02;100.00;100508.75;5098674;28;20146;-83
2022/10/15 06:29:06;;;;;;;53.20;22.30;;;;;;;12.02;100.00;100500.59;5082081;28;20126;-83
2022/10/15 06:31:31;;;;;;;51.33;23.77;;;;;;;12.04;100.00;100500.34;5064858;28;20084;-83
2022/10/15 06:33:57;;;;;;;50.27;23.20;;;;;;;12.01;100.00;100507.09;5098446;28;20031;-83
2022/10/15 06:36:24;;;;;;;49.53;24.10;;;;;;;12.01;100.00;100509.81;5098241;28;20030;-83
2022/10/15 06:38:49;;;;;;;52.47;25.03;;;;;;;12.01;100.00;100506.25;5081491;28;20285;-83
2022/10/15 06:41:15;;;;;;;54.23;24.97;;;;;;;12.03;100.00;100510.41;5098196;28;20038;-83
2022/10/15 06:43:41;;;;;;;58.47;25.60;;;;;;;12.05;100.00;100511.00;5081736;28;20769;-83
2022/10/15 06:46:07;;;;;;;52.55;24.42;;;;;;;12.07;100.00;100499.88;5116264;28;20030;-83
2022/10/15 06:48:33;;;;;;;55.03;24.37;;;;;;;12.07;100.00;100499.88;5081088;28;20028;-83
2022/10/15 06:51:00;;;;;;;52.60;24.60;;;;;;;12.07;100.00;100502.59;5081107;28;20118;-83
2022/10/15 06:53:25;;;;;;;48.90;24.48;;;;;;;12.06;100.00;100500.94;5097551;28;20146;-83
2022/10/15 06:55:55;;;;;;;50.67;23.93;;;;;;;12.03;100.00;100507.69;5097821;28;20031;-83
2022/10/15 06:58:20;;;;;;;50.25;24.20;;;;;;;12.01;100.00;100501.66;5097785;28;20100;-83
2022/10/15 07:00:46;;;;;;;47.77;24.37;;;;;;;11.95;100.00;100507.19;5097870;28;20472;-83
2022/10/15 07:03:11;;;;;;;49.55;24.55;;;;;;;11.92;100.00;100495.69;5063884;28;20063;-83
2022/10/15 07:05:37;;;;;;;44.37;23.17;;;;;;;11.92;100.00;100497.59;5080324;28;20027;-82
2022/10/15 07:08:02;;;;;;;46.30;23.00;;;;;;;11.90;100.00;100500.53;5115634;28;20031;-83
2022/10/15 07:10:28;;;;;;;45.73;22.20;;;;;;;11.91;100.00;100512.22;5097374;28;20483;-83
2022/10/15 07:12:54;;;;;;;41.60;20.73;;;;;;;11.92;100.00;100517.44;5097528;28;20119;-83
2022/10/15 07:15:20;;;;;;;47.70;22.50;;;;;;;11.94;100.00;100519.94;5116280;28;20115;-83
2022/10/15 07:18:00;;;;;;;43.70;21.00;;;;;;;11.99;100.00;100521.97;5115685;28;20119;-84
2022/10/15 07:20:27;;;;;;;46.95;19.75;;;;;;;12.04;100.00;100516.69;5097615;28;20073;-82
2022/10/15 07:23:00;;;;;;;43.80;21.05;;;;;;;12.08;100.00;100507.81;5097296;28;20053;-83
2022/10/15 07:25:26;;;;;;;41.23;20.47;;;;;;;12.19;100.00;100503.44;5115114;28;20096;-83
2022/10/15 07:27:54;;;;;;;47.53;23.20;;;;;;;12.35;100.00;100488.31;5096821;28;20048;-83
2022/10/15 07:30:21;;;;;;;41.33;20.70;;;;;;;12.54;100.00;100477.34;5097566;28;20035;-83
2022/10/15 07:32:46;;;;;;;38.53;20.58;;;;;;;12.67;100.00;100479.81;5096625;28;20077;-83
2022/10/15 07:35:12;;;;;;;33.37;17.90;;;;;;;12.75;100.00;100476.69;5097268;28;20032;-83
2022/10/15 07:37:37;;;;;;;31.90;17.65;;;;;;;12.75;100.00;100473.16;5080099;28;20034;-83
2022/10/15 07:40:03;;;;;;;33.50;17.60;;;;;;;12.69;100.00;100477.66;5097167;28;20448;-84
2022/10/15 07:42:32;;;;;;;32.97;17.03;;;;;;;12.62;100.00;100466.91;5096935;28;20429;-88
2022/10/15 07:44:58;;;;;;;29.02;16.38;;;;;;;12.59;100.00;100474.72;5115307;28;20031;-84
2022/10/15 07:47:23;;;;;;;32.95;16.40;;;;;;;12.58;100.00;100470.34;5097033;28;20058;-84
2022/10/15 07:49:49;;;;;;;28.83;15.77;;;;;;;12.67;100.00;100465.34;5096679;28;20077;-83
2022/10/15 07:52:14;;;;;;;28.63;16.05;;;;;;;12.89;100.00;100465.56;5096309;28;20036;-84
2022/10/15 07:54:40;;;;;;;30.70;15.87;;;;;;;13.07;100.00;100470.03;5096780;28;20076;-83
2022/10/15 07:57:08;;;;;;;27.70;15.07;;;;;;;13.16;100.00;100466.66;5096768;28;20036;-84
2022/10/15 07:59:34;;;;;;;26.88;14.32;;;;;;;13.27;100.00;100465.00;5096178;28;20043;-84
2022/10/15 08:01:59;;;;;;;22.98;13.45;;;;;;;13.41;100.00;100457.38;5097331;28;20418;-84
2022/10/15 08:04:24;;;;;;;28.77;14.20;;;;;;;13.49;100.00;100457.00;5079260;28;20588;-85
2022/10/15 08:06:50;;;;;;;20.83;12.80;;;;;;;13.59;100.00;100467.22;5096691;28;20113;-84
2022/10/15 08:09:16;;;;;;;23.43;12.37;;;;;;;13.66;100.00;100462.47;5096358;28;20020;-84
2022/10/15 08:11:41;;;;;;;19.23;12.27;;;;;;;13.75;100.00;100459.34;5079709;28;20067;-84
2022/10/15 08:14:07;;;;;;;19.77;11.47;;;;;;;13.75;100.00;100446.53;5097101;28;20024;-84
2022/10/15 08:16:32;;;;;;;16.55;10.75;;;;;;;13.89;100.00;100446.22;5096103;28;20054;-84
2022/10/15 08:18:58;;;;;;;19.50;11.27;;;;;;;14.04;100.00;100443.75;5080118;28;20167;-85
2022/10/15 08:21:24;;;;;;;14.55;9.20;;;;;;;14.20;100.00;100450.25;5114428;28;20050;-84
2022/10/15 08:23:50;;;;;;;14.47;9.30;;;;;;;14.26;100.00;100442.97;5114409;28;20039;-84
2022/10/15 08:26:16;;;;;;;14.00;8.95;;;;;;;14.39;100.00;100450.81;5095915;28;20055;-84
2022/10/15 08:28:42;;;;;;;13.63;8.73;;;;;;;14.48;100.00;100448.47;5095632;28;20039;-84
2022/10/15 08:31:07;;;;;;;13.00;8.15;;;;;;;14.56;100.00;100448.06;5096358;28;20031;-85
2022/10/15 08:33:34;;;;;;;12.77;8.13;;;;;;;14.55;100.00;100454.59;5078979;28;20036;-84
2022/10/15 08:36:00;;;;;;;11.80;7.22;;;;;;;14.56;100.00;100448.88;5095564;28;20483;-84
2022/10/15 08:38:25;;;;;;;11.13;6.93;;;;;;;14.52;100.00;100436.81;5095726;28;20043;-85
2022/10/15 08:40:54;;;;;;;9.02;6.00;;;;;;;14.54;100.00;100439.28;5096132;28;20062;-84
2022/10/15 08:43:39;;;;;;;9.47;5.97;;;;;;;14.56;100.00;100426.22;5095209;28;20051;-84
2022/10/15 08:46:10;;;;;;;9.63;5.68;;;;;;;14.64;100.00;100422.25;5114088;28;20131;-84
2022/10/15 08:48:41;;;;;;;8.38;5.55;;;;;;;14.81;100.00;100424.94;5096584;28;20088;-84
2022/10/15 08:51:15;;;;;;;9.88;5.43;;;;;;;14.86;100.00;100431.25;5113693;28;20401;-84
2022/10/15 08:53:54;;;;;;;7.82;5.50;;;;;;;14.85;100.00;100420.59;5096299;28;20055;-84
2022/10/15 08:56:22;;;;;;;8.47;4.97;;;;;;;14.87;100.00;100419.28;5095465;28;20024;-84
2022/10/15 08:59:03;;;;;;;5.90;4.65;;;;;;;14.90;100.00;100416.03;5095739;28;20436;-84
2022/10/15 09:01:56;;;;;;;6.72;4.57;;;;;;;15.07;100.00;100404.19;5114164;28;20096;-84
2022/10/15 09:04:21;;;;;;;8.40;4.40;;;;;;;15.26;100.00;100401.94;5095872;28;20027;-84
2022/10/15 09:06:54;;;;;;;8.80;4.53;;;;;;;15.37;100.00;100395.50;5096063;28;20035;-84
2022/10/15 09:09:47;;;;;;;7.65;4.65;;;;;;;15.36;100.00;100385.63;5095550;28;20020;-84
2022/10/15 09:12:30;;;;;;;7.33;4.53;;;;;;;15.25;100.00;100395.66;5096569;28;20020;-87
2022/10/15 09:14:58;;;;;;;7.35;4.10;;;;;;;15.10;100.00;100392.75;5095514;28;20123;-84
2022/10/15 09:17:27;;;;;;;5.68;4.20;;;;;;;15.04;100.00;100386.44;5095108;28;20031;-85
2022/10/15 09:19:54;;;;;;;6.85;4.32;;;;;;;15.00;100.00;100398.09;5114003;28;20449;-84
2022/10/15 09:22:26;;;;;;;8.00;4.30;;;;;;;15.03;100.00;100383.97;5095508;28;20067;-85
2022/10/15 09:24:52;;;;;;;6.43;4.00;;;;;;;15.09;100.00;100386.47;5096159;28;20043;-84
2022/10/15 09:27:26;;;;;;;6.20;3.95;;;;;;;15.19;100.00;100399.44;5095378;28;20047;-84
2022/10/15 09:29:52;;;;;;;8.90;3.80;;;;;;;15.17;100.00;100396.09;5095580;28;20475;-87
2022/10/15 09:32:38;;;;;;;5.77;3.70;;;;;;;15.07;100.00;100396.00;5095700;28;20092;-86
2022/10/15 09:35:17;;;;;;;4.68;3.50;;;;;;;15.03;100.00;100387.50;5095634;28;20028;-84
2022/10/15 09:38:17;;;;;;;5.47;3.20;;;;;;;15.03;100.00;100392.16;5094964;28;20427;-84
2022/10/15 09:40:48;;;;;;;3.88;3.05;;;;;;;14.73;100.00;100383.34;5095945;28;20514;-84
2022/10/15 09:43:22;;;;;;;6.60;3.30;;;;;;;14.61;100.00;100389.97;5095339;28;20028;-84
2022/10/15 09:45:48;;;;;;;3.97;3.00;;;;;;;14.35;100.00;100387.72;5095118;28;20030;-84
2022/10/15 09:48:18;;;;;;;5.80;3.87;;;;;;;14.26;100.00;100372.88;5078160;28;20205;-85
2022/10/15 09:50:54;;;;;;;5.65;2.85;;;;;;;14.29;100.00;100371.53;5095322;28;20116;-84
2022/10/15 09:53:31;;;;;;;6.20;3.40;;;;;;;14.29;100.00;100386.00;5095395;28;20032;-85
2022/10/15 09:56:18;;;;;;;7.35;3.28;;;;;;;14.27;100.00;100382.69;5098151;28;20024;-84
2022/10/15 09:58:54;;;;;;;6.47;3.20;;;;;;;14.38;100.00;100367.31;5099044;28;20081;-85
2022/10/15 10:01:29;;;;;;;4.30;3.17;;;;;;;14.44;100.00;100371.75;5099134;28;20038;-85
2022/10/15 10:04:19;;;;;;;5.32;2.67;;;;;;;14.45;100.00;100361.63;5098978;28;20421;-85
2022/10/15 10:06:56;;;;;;;4.20;2.20;;;;;;;14.36;100.00;100367.56;5117066;28;20036;-86
2022/10/15 10:09:25;;;;;;;4.28;2.40;;;;;;;14.33;100.00;100368.03;5098998;28;20467;-84
2022/10/15 10:11:58;;;;;;;5.53;2.72;;;;;;;14.35;100.00;100365.91;5116747;28;20108;-84
2022/10/15 10:14:57;;;;;;;3.90;2.80;;;;;;;14.36;100.00;100362.09;5099180;28;20050;-84
2022/10/15 10:17:29;;;;;;;6.22;2.53;;;;;;;14.38;100.00;100359.94;5044593;28;20055;-85
2022/10/15 10:20:17;;;;;;;3.10;2.15;;;;;;;14.44;100.00;100360.81;5116790;28;20027;-85
2022/10/15 10:22:53;;;;;;;2.40;2.20;;;;;;;14.45;100.00;100365.19;5099017;28;20026;-85
2022/10/15 10:25:29;;;;;;;4.22;2.10;;;;;;;14.49;100.00;100370.97;5097981;28;20028;-84
2022/10/15 10:28:02;;;;;;;6.03;1.90;;;;;;;14.45;100.00;100358.91;5098144;28;20483;-84
2022/10/15 10:30:32;;;;;;;4.75;1.92;;;;;;;14.51;100.00;100366.09;5116549;28;20036;-84
2022/10/15 10:32:59;;;;;;;3.65;1.50;;;;;;;14.54;100.00;100368.31;5099029;28;20046;-84
2022/10/15 10:35:33;;;;;;;3.70;2.10;;;;;;;14.49;100.00;100355.41;5098094;28;20055;-84
2022/10/15 10:37:59;;;;;;;4.18;1.65;;;;;;;14.50;100.00;100362.53;5098434;28;20019;-85
2022/10/15 10:40:33;;;;;;;5.40;1.63;;;;;;;14.55;100.00;100372.69;5081158;28;20050;-85
2022/10/15 10:43:23;;;;;;;2.00;1.30;;;;;;;14.69;100.00;100370.41;5097812;28;20119;-84
2022/10/15 10:46:04;;;;;;;1.90;1.70;;;;;;;14.82;100.00;100364.59;5097830;28;20072;-84
2022/10/15 10:48:40;;;;;;;3.73;1.70;;;;;;;14.86;100.00;100365.72;5098585;28;20027;-84
2022/10/15 10:51:20;;;;;;;2.20;1.75;;;;;;;14.90;100.00;100366.03;5097816;28;20038;-86
2022/10/15 10:54:01;;;;;;;2.42;1.80;;;;;;;14.90;100.00;100372.31;5098286;28;20023;-84
2022/10/15 10:56:34;;;;;;;2.80;1.88;;;;;;;14.96;100.00;100367.75;5098556;28;20089;-84
2022/10/15 10:59:21;;;;;;;6.45;1.98;;;;;;;15.00;100.00;100366.16;5097529;28;20027;-84
2022/10/15 11:01:49;;;;;;;2.67;1.87;;;;;;;15.05;100.00;100358.00;5098264;28;20035;-85
2022/10/15 11:04:28;;;;;;;3.67;2.25;;;;;;;14.96;100.00;100364.22;5097543;28;20062;-84
2022/10/15 11:07:02;;;;;;;3.22;2.33;;;;;;;14.90;100.00;100366.03;5096991;28;20027;-84
2022/10/15 11:09:41;;;;;;;2.80;2.40;;;;;;;14.96;100.00;100359.56;5097580;28;20036;-84
2022/10/15 11:12:34;;;;;;;2.80;2.50;;;;;;;15.08;100.00;100354.75;5097700;28;20531;-84
2022/10/15 11:15:17;;;;;;;3.70;2.37;;;;;;;15.22;100.00;100348.88;5115741;28;20031;-86
2022/10/15 11:18:10;;;;;;;3.45;1.95;;;;;;;15.39;100.00;100348.78;5098019;28;20028;-85